createdAt,value
2018-02-25T00:00:54.049Z,9.20
2018-02-25T00:03:23.423Z,9.04
2018-02-25T00:05:51.976Z,9.16
2018-02-25T00:08:20.532Z,8.88
2018-02-25T00:10:49.121Z,9.33
2018-02-25T00:13:17.665Z,9.21
2018-02-25T00:15:46.214Z,9.40
2018-02-25T00:18:15.580Z,8.96
2018-02-25T00:20:44.124Z,8.94
2018-02-25T00:23:12.677Z,9.38
2018-02-25T00:25:41.271Z,9.13
2018-02-25T00:28:09.819Z,8.91
2018-02-25T00:30:38.362Z,8.95
2018-02-25T00:33:07.722Z,8.69
2018-02-25T00:35:36.269Z,8.46
2018-02-25T00:38:04.812Z,8.50
2018-02-25T00:40:33.400Z,8.70
2018-02-25T00:43:01.957Z,8.96
2018-02-25T00:45:30.542Z,9.19
2018-02-25T00:47:59.129Z,9.17
2018-02-25T00:50:28.441Z,9.03
2018-02-25T00:52:56.984Z,8.78
2018-02-25T00:55:25.573Z,8.70
2018-02-25T00:57:54.116Z,8.89
2018-02-25T01:00:23.449Z,8.93
2018-02-25T01:02:52.167Z,9.13
2018-02-25T01:05:20.712Z,8.79
2018-02-25T01:07:49.259Z,8.64
2018-02-25T01:10:18.729Z,8.38
2018-02-25T01:12:47.306Z,8.28
2018-02-25T01:15:15.852Z,8.34
2018-02-25T01:17:45.204Z,8.30
2018-02-25T01:20:13.752Z,8.85
2018-02-25T01:22:42.311Z,8.66
2018-02-25T01:25:11.953Z,8.85
2018-02-25T01:27:40.497Z,8.76
2018-02-25T01:30:09.809Z,8.70
2018-02-25T01:32:39.168Z,8.07
2018-02-25T01:35:07.712Z,7.67
2018-02-25T01:37:36.252Z,7.60
2018-02-25T01:40:05.319Z,7.59
2018-02-25T01:42:33.873Z,7.97
2018-02-25T01:45:02.412Z,7.44
2018-02-25T01:47:31.378Z,7.84
2018-02-25T01:49:59.924Z,7.88
2018-02-25T01:52:28.473Z,7.54
2018-02-25T01:54:57.077Z,7.44
2018-02-25T01:57:26.384Z,7.62
2018-02-25T01:59:54.937Z,7.90
2018-02-25T02:02:23.539Z,7.55
2018-02-25T02:04:52.844Z,7.55
2018-02-25T02:07:22.150Z,7.83
2018-02-25T02:09:51.652Z,7.24
2018-02-25T02:12:20.201Z,6.88
2018-02-25T02:14:48.761Z,7.62
2018-02-25T02:17:17.560Z,7.28
2018-02-25T02:19:46.133Z,6.93
2018-02-25T02:22:14.671Z,7.30
2018-02-25T02:24:44.024Z,7.23
2018-02-25T02:27:12.564Z,7.33
2018-02-25T02:29:41.100Z,7.24
2018-02-25T02:32:09.870Z,6.92
2018-02-25T02:34:38.415Z,6.92
2018-02-25T02:37:06.960Z,7.08
2018-02-25T02:39:35.649Z,6.86
2018-02-25T02:42:04.222Z,7.40
2018-02-25T02:44:33.529Z,7.22
2018-02-25T02:47:02.899Z,7.03
2018-02-25T02:49:31.453Z,7.07
2018-02-25T02:51:59.990Z,6.76
2018-02-25T02:54:28.583Z,7.20
2018-02-25T02:56:57.150Z,6.91
2018-02-25T02:59:25.695Z,6.88
2018-02-25T03:01:54.469Z,7.33
2018-02-25T03:04:23.040Z,7.51
2018-02-25T03:06:52.349Z,7.42
2018-02-25T03:09:21.042Z,7.26
2018-02-25T03:11:49.586Z,7.53
2018-02-25T03:14:18.138Z,7.83
2018-02-25T03:16:46.928Z,7.52
2018-02-25T03:19:15.465Z,7.44
2018-02-25T03:21:44.773Z,7.36
2018-02-25T03:24:13.379Z,7.20
2018-02-25T03:26:41.912Z,7.02
2018-02-25T03:29:10.484Z,7.20
2018-02-25T03:31:39.169Z,7.07
2018-02-25T03:34:07.741Z,7.59
2018-02-25T03:36:36.284Z,7.16
2018-02-25T03:39:05.036Z,7.12
2018-02-25T03:41:33.589Z,6.91
2018-02-25T03:44:02.136Z,7.22
2018-02-25T03:46:31.588Z,7.14
2018-02-25T03:49:00.897Z,7.00
2018-02-25T03:51:29.452Z,7.15
2018-02-25T03:53:58.045Z,6.88
2018-02-25T03:56:26.588Z,6.53
2018-02-25T03:58:55.133Z,6.73
2018-02-25T04:01:23.725Z,6.56
2018-02-25T04:03:53.035Z,6.57
2018-02-25T04:06:22.346Z,6.45
2018-02-25T04:08:51.282Z,6.55
2018-02-25T04:11:19.803Z,6.61
2018-02-25T04:13:49.115Z,6.56
2018-02-25T04:16:18.472Z,6.60
2018-02-25T04:18:47.048Z,6.84
2018-02-25T04:21:15.594Z,6.82
2018-02-25T04:23:44.203Z,6.74
2018-02-25T04:26:12.733Z,6.68
2018-02-25T04:28:42.785Z,6.80
2018-02-25T04:31:11.709Z,6.57
2018-02-25T04:33:40.251Z,7.35
2018-02-25T04:36:08.868Z,6.84
2018-02-25T04:38:37.456Z,6.84
2018-02-25T04:41:05.993Z,6.60
2018-02-25T04:43:35.304Z,6.35
2018-02-25T04:46:03.903Z,6.35
2018-02-25T04:48:32.444Z,6.67
2018-02-25T04:51:01.783Z,6.47
2018-02-25T04:53:30.552Z,6.15
2018-02-25T04:55:59.896Z,6.04
2018-02-25T04:58:28.439Z,6.54
2018-02-25T05:00:57.136Z,6.61
2018-02-25T05:03:25.685Z,6.29
2018-02-25T05:05:55.000Z,6.12
2018-02-25T05:08:24.552Z,6.27
2018-02-25T05:10:53.097Z,6.14
2018-02-25T05:13:21.653Z,6.25
2018-02-25T05:15:51.206Z,6.39
2018-02-25T05:18:19.756Z,6.65
2018-02-25T05:20:49.070Z,6.56
2018-02-25T05:23:17.660Z,7.07
2018-02-25T05:25:46.216Z,6.23
2018-02-25T05:28:15.555Z,6.02
2018-02-25T05:30:44.157Z,6.21
2018-02-25T05:33:12.701Z,5.66
2018-02-25T05:35:41.254Z,5.45
2018-02-25T05:38:09.848Z,5.44
2018-02-25T05:40:39.161Z,5.30
2018-02-25T05:43:07.709Z,5.57
2018-02-25T05:45:36.312Z,5.82
2018-02-25T05:48:04.862Z,5.76
2018-02-25T05:50:33.406Z,5.42
2018-02-25T05:53:02.153Z,5.57
2018-02-25T05:55:30.724Z,5.26
2018-02-25T05:57:59.262Z,5.26
2018-02-25T06:00:27.856Z,5.47
2018-02-25T06:02:56.407Z,5.19
2018-02-25T06:05:24.952Z,5.28
2018-02-25T06:07:54.309Z,5.43
2018-02-25T06:10:22.856Z,5.27
2018-02-25T06:12:51.406Z,5.55
2018-02-25T06:15:20.977Z,5.12
2018-02-25T06:17:49.525Z,5.03
2018-02-25T06:20:18.089Z,5.02
2018-02-25T06:22:47.568Z,5.24
2018-02-25T06:25:16.120Z,5.11
2018-02-25T06:27:44.668Z,4.90
2018-02-25T06:30:14.209Z,5.08
2018-02-25T06:32:42.752Z,5.01
2018-02-25T06:35:12.103Z,5.11
2018-02-25T06:37:40.693Z,5.10
2018-02-25T06:40:09.266Z,5.21
2018-02-25T06:42:37.818Z,5.40
2018-02-25T06:45:06.637Z,5.29
2018-02-25T06:47:35.177Z,5.02
2018-02-25T06:50:04.499Z,4.84
2018-02-25T06:52:33.100Z,4.59
2018-02-25T06:55:01.639Z,4.91
2018-02-25T06:57:30.192Z,4.71
2018-02-25T06:59:58.793Z,5.29
2018-02-25T07:02:28.107Z,5.20
2018-02-25T07:04:57.424Z,5.20
2018-02-25T07:07:26.043Z,5.45
2018-02-25T07:09:54.593Z,5.25
2018-02-25T07:12:23.137Z,5.10
2018-02-25T07:14:51.901Z,4.49
2018-02-25T07:17:20.448Z,4.89
2018-02-25T07:19:48.996Z,4.76
2018-02-25T07:22:18.470Z,4.62
2018-02-25T07:24:47.016Z,4.91
2018-02-25T07:27:15.579Z,4.75
2018-02-25T07:29:45.188Z,4.82
2018-02-25T07:32:13.724Z,4.86
2018-02-25T07:34:43.075Z,4.52
2018-02-25T07:37:11.675Z,4.42
2018-02-25T07:39:40.224Z,4.54
2018-02-25T07:42:09.544Z,4.70
2018-02-25T07:44:39.062Z,4.60
2018-02-25T07:47:07.618Z,4.83
2018-02-25T07:49:36.932Z,4.55
2018-02-25T07:52:06.310Z,4.90
2018-02-25T07:54:35.629Z,4.76
2018-02-25T07:57:04.184Z,4.60
2018-02-25T07:59:32.794Z,4.91
2018-02-25T08:02:02.112Z,4.90
2018-02-25T08:04:30.670Z,4.98
2018-02-25T08:07:00.041Z,4.31
2018-02-25T08:09:28.638Z,4.37
2018-02-25T08:11:58.077Z,4.60
2018-02-25T08:14:27.537Z,4.37
2018-02-25T08:16:56.088Z,4.38
2018-02-25T08:19:24.672Z,4.86
2018-02-25T08:21:53.478Z,4.53
2018-02-25T08:24:22.075Z,5.37
2018-02-25T08:26:50.648Z,5.07
2018-02-25T08:29:19.244Z,4.95
2018-02-25T08:31:47.800Z,4.78
2018-02-25T08:34:16.352Z,4.39
2018-02-25T08:36:44.954Z,4.65
2018-02-25T08:39:13.550Z,4.76
2018-02-25T08:41:42.096Z,5.00
2018-02-25T08:44:11.565Z,5.27
2018-02-25T08:46:40.117Z,4.47
2018-02-25T08:49:08.673Z,4.58
2018-02-25T08:51:37.296Z,4.79
2018-02-25T08:54:06.656Z,4.80
2018-02-25T08:56:36.572Z,4.78
2018-02-25T08:59:05.937Z,4.78
2018-02-25T09:01:34.499Z,4.77
2018-02-25T09:04:03.051Z,4.60
2018-02-25T09:06:31.654Z,4.12
2018-02-25T09:09:00.211Z,4.31
2018-02-25T09:11:28.756Z,4.70
2018-02-25T09:13:57.516Z,4.78
2018-02-25T09:16:26.102Z,4.69
2018-02-25T09:18:54.660Z,4.77
2018-02-25T09:21:23.540Z,4.57
2018-02-25T09:23:52.088Z,4.73
2018-02-25T09:26:20.646Z,4.72
2018-02-25T09:28:49.249Z,4.72
2018-02-25T09:31:17.813Z,4.65
2018-02-25T09:33:46.372Z,4.55
2018-02-25T09:36:14.975Z,4.80
2018-02-25T09:38:44.172Z,4.96
2018-02-25T09:41:12.734Z,4.05
2018-02-25T09:43:41.541Z,4.68
2018-02-25T09:46:10.088Z,4.40
2018-02-25T09:48:38.664Z,4.47
2018-02-25T09:51:08.036Z,4.58
2018-02-25T09:53:36.592Z,4.80
2018-02-25T09:56:05.144Z,4.27
2018-02-25T09:58:34.510Z,4.40
2018-02-25T10:01:04.568Z,4.49
2018-02-25T10:03:33.124Z,4.67
2018-02-25T10:06:02.493Z,4.51
2018-02-25T10:08:31.053Z,4.16
2018-02-25T10:10:59.673Z,4.46
2018-02-25T10:13:28.377Z,4.68
2018-02-25T10:15:57.697Z,4.43
2018-02-25T10:18:26.251Z,4.43
2018-02-25T10:20:55.629Z,4.39
2018-02-25T10:23:24.186Z,4.31
2018-02-25T10:25:52.728Z,4.27
2018-02-25T10:28:23.066Z,4.28
2018-02-25T10:30:51.625Z,4.24
2018-02-25T10:33:20.181Z,4.13
2018-02-25T10:35:49.044Z,4.52
2018-02-25T10:38:17.628Z,4.79
2018-02-25T10:40:46.189Z,4.47
2018-02-25T10:43:14.792Z,4.37
2018-02-25T10:45:43.348Z,4.52
2018-02-25T10:48:11.929Z,4.48
2018-02-25T10:50:40.679Z,4.50
2018-02-25T10:53:09.999Z,4.54
2018-02-25T10:55:39.400Z,4.82
2018-02-25T10:58:08.007Z,4.64
2018-02-25T11:00:42.021Z,4.49
2018-02-25T11:03:10.934Z,4.25
2018-02-25T11:05:39.493Z,4.48
2018-02-25T11:08:08.053Z,4.88
2018-02-25T11:10:36.662Z,4.53
2018-02-25T11:13:05.232Z,4.63
2018-02-25T11:15:33.840Z,5.65
2018-02-25T11:18:02.425Z,5.19
2018-02-25T11:20:30.964Z,4.89
2018-02-25T11:23:01.058Z,4.62
2018-02-25T11:25:29.657Z,5.16
2018-02-25T11:27:58.973Z,4.91
2018-02-25T11:30:27.528Z,5.07
2018-02-25T11:32:56.492Z,4.93
2018-02-25T11:35:25.814Z,4.51
2018-02-25T11:37:54.382Z,5.43
2018-02-25T11:40:23.129Z,5.08
2018-02-25T11:42:51.672Z,5.55
2018-02-25T11:45:20.229Z,5.55
2018-02-25T11:47:49.104Z,5.33
2018-02-25T11:50:17.650Z,4.76
2018-02-25T11:52:46.968Z,4.94
2018-02-25T11:55:15.643Z,5.27
2018-02-25T11:57:44.956Z,5.20
2018-02-25T12:00:13.504Z,5.07
2018-02-25T12:02:43.075Z,5.13
2018-02-25T12:05:11.625Z,5.55
2018-02-25T12:07:40.185Z,5.06
2018-02-25T12:10:09.850Z,5.16
2018-02-25T12:12:38.396Z,5.31
2018-02-25T12:15:06.952Z,5.01
2018-02-25T12:17:35.649Z,5.08
2018-02-25T12:20:05.301Z,5.33
2018-02-25T12:22:33.852Z,5.26
2018-02-25T12:25:02.559Z,4.96
2018-02-25T12:27:31.128Z,4.77
2018-02-25T12:30:00.043Z,5.45
2018-02-25T12:32:30.609Z,5.94
2018-02-25T12:34:59.172Z,5.44
2018-02-25T12:37:27.724Z,5.40
2018-02-25T12:39:56.433Z,5.52
2018-02-25T12:42:25.728Z,5.55
2018-02-25T12:44:54.532Z,5.51
2018-02-25T12:47:23.313Z,5.48
2018-02-25T12:49:51.865Z,5.30
2018-02-25T12:52:21.080Z,4.88
2018-02-25T12:54:49.677Z,5.13
2018-02-25T12:57:18.331Z,5.06
2018-02-25T12:59:46.880Z,4.92
2018-02-25T13:02:16.397Z,4.95
2018-02-25T13:04:45.713Z,4.92
2018-02-25T13:07:14.265Z,5.11
2018-02-25T13:09:42.869Z,5.47
2018-02-25T13:12:12.177Z,5.35
2018-02-25T13:14:40.724Z,5.19
2018-02-25T13:17:09.321Z,5.22
2018-02-25T13:19:37.876Z,5.23
2018-02-25T13:22:06.424Z,5.17
2018-02-25T13:24:35.018Z,4.92
2018-02-25T13:27:03.559Z,4.88
2018-02-25T13:29:32.873Z,5.24
2018-02-25T13:32:02.233Z,5.08
2018-02-25T13:34:30.826Z,4.94
2018-02-25T13:36:59.377Z,5.20
2018-02-25T13:39:28.176Z,4.92
2018-02-25T13:41:56.724Z,5.40
2018-02-25T13:44:25.283Z,5.26
2018-02-25T13:46:54.645Z,5.32
2018-02-25T13:49:23.197Z,5.46
2018-02-25T13:51:51.816Z,5.42
2018-02-25T13:54:21.249Z,5.07
2018-02-25T13:56:50.576Z,5.22
2018-02-25T13:59:19.128Z,5.37
2018-02-25T14:01:47.829Z,5.13
2018-02-25T14:04:17.148Z,5.48
2018-02-25T14:06:45.696Z,5.14
2018-02-25T14:09:15.067Z,4.91
2018-02-25T14:11:43.612Z,5.23
2018-02-25T14:14:12.914Z,4.94
2018-02-25T14:16:41.659Z,5.13
2018-02-25T14:19:10.264Z,5.31
2018-02-25T14:21:39.628Z,5.04
2018-02-25T14:24:08.608Z,5.28
2018-02-25T14:26:37.161Z,4.85
2018-02-25T14:29:06.553Z,5.43
2018-02-25T14:31:36.317Z,4.80
2018-02-25T14:34:04.903Z,4.95
2018-02-25T14:36:33.451Z,5.37
2018-02-25T14:39:02.373Z,5.30
2018-02-25T14:41:30.929Z,5.60
2018-02-25T14:43:59.480Z,5.36
2018-02-25T14:46:29.128Z,5.33
2018-02-25T14:48:57.682Z,5.21
2018-02-25T14:51:26.232Z,5.16
2018-02-25T14:53:55.104Z,5.25
2018-02-25T14:56:23.747Z,5.65
2018-02-25T14:58:52.470Z,5.25
2018-02-25T15:01:21.180Z,5.42
2018-02-25T15:03:50.520Z,5.16
2018-02-25T15:06:19.213Z,5.34
2018-02-25T15:08:48.210Z,5.34
2018-02-25T15:11:16.764Z,5.33
2018-02-25T15:13:45.313Z,5.24
2018-02-25T15:16:15.076Z,5.41
2018-02-25T15:18:44.830Z,5.71
2018-02-25T15:21:14.141Z,5.63
2018-02-25T15:23:43.686Z,5.13
2018-02-25T15:26:12.229Z,5.44
2018-02-25T15:28:40.964Z,5.67
2018-02-25T15:31:09.753Z,5.51
2018-02-25T15:33:38.301Z,5.51
2018-02-25T15:36:06.847Z,5.58
2018-02-25T15:38:35.449Z,5.32
2018-02-25T15:41:04.759Z,5.51
2018-02-25T15:43:34.069Z,5.24
2018-02-25T15:46:02.914Z,5.37
2018-02-25T15:48:31.678Z,5.58
2018-02-25T15:51:00.224Z,5.63
2018-02-25T15:53:29.049Z,5.78
2018-02-25T15:55:57.588Z,6.11
2018-02-25T15:58:26.137Z,5.77
2018-02-25T16:00:54.880Z,5.53
2018-02-25T16:03:25.108Z,5.37
2018-02-25T16:05:54.428Z,5.90
2018-02-25T16:08:23.174Z,5.99
2018-02-25T16:10:51.725Z,5.67
2018-02-25T16:13:20.274Z,5.55
2018-02-25T16:15:49.152Z,5.84
2018-02-25T16:18:18.462Z,5.52
2018-02-25T16:20:47.004Z,5.75
2018-02-25T16:23:15.713Z,5.44
2018-02-25T16:25:45.177Z,5.36
2018-02-25T16:28:13.820Z,5.64
2018-02-25T16:30:42.691Z,5.67
2018-02-25T16:33:12.156Z,5.39
2018-02-25T16:35:40.709Z,5.13
2018-02-25T16:38:09.301Z,5.35
2018-02-25T16:40:37.845Z,5.45
2018-02-25T16:43:07.149Z,5.52
2018-02-25T16:45:36.515Z,5.05
2018-02-25T16:48:05.057Z,5.37
2018-02-25T16:50:34.589Z,5.21
2018-02-25T16:53:03.374Z,5.07
2018-02-25T16:55:31.912Z,5.21
2018-02-25T16:58:01.221Z,5.00
2018-02-25T17:00:29.949Z,4.95
2018-02-25T17:02:58.500Z,4.66
2018-02-25T17:05:27.031Z,5.07
2018-02-25T17:07:55.801Z,4.74
2018-02-25T17:10:24.341Z,4.96
2018-02-25T17:12:52.885Z,4.73
2018-02-25T17:15:23.081Z,5.04
2018-02-25T17:17:51.668Z,4.70
2018-02-25T17:20:20.232Z,4.82
2018-02-25T17:22:49.029Z,4.69
2018-02-25T17:25:17.577Z,4.85
2018-02-25T17:27:46.896Z,4.47
2018-02-25T17:30:15.601Z,4.46
2018-02-25T17:32:44.145Z,4.46
2018-02-25T17:35:12.697Z,4.75
2018-02-25T17:37:41.397Z,4.46
2018-02-25T17:40:10.708Z,4.66
2018-02-25T17:42:40.021Z,4.66
2018-02-25T17:45:08.947Z,4.76
2018-02-25T17:47:37.492Z,4.12
2018-02-25T17:50:06.319Z,4.67
2018-02-25T17:52:35.061Z,5.19
2018-02-25T17:55:03.613Z,5.12
2018-02-25T17:57:32.174Z,4.69
2018-02-25T18:00:00.957Z,4.28
2018-02-25T18:02:29.504Z,4.82
2018-02-25T18:04:58.060Z,4.22
2018-02-25T18:07:26.788Z,4.46
2018-02-25T18:09:55.340Z,4.27
2018-02-25T18:12:23.897Z,4.10
2018-02-25T18:14:53.653Z,4.09
2018-02-25T18:17:22.969Z,3.94
2018-02-25T18:19:51.540Z,4.21
2018-02-25T18:22:20.247Z,4.36
2018-02-25T18:24:48.810Z,4.30
2018-02-25T18:27:17.363Z,4.09
2018-02-25T18:29:46.037Z,4.42
2018-02-25T18:32:14.585Z,4.30
2018-02-25T18:34:43.908Z,4.22
2018-02-25T18:37:13.361Z,4.39
2018-02-25T18:39:41.913Z,4.03
2018-02-25T18:42:10.465Z,4.04
2018-02-25T18:44:39.824Z,4.12
2018-02-25T18:47:08.388Z,3.97
2018-02-25T18:49:36.949Z,4.06
2018-02-25T18:52:05.557Z,4.03
2018-02-25T18:54:34.113Z,3.97
2018-02-25T18:57:02.660Z,3.97
2018-02-25T18:59:31.300Z,4.19
2018-02-25T19:01:59.862Z,3.50
2018-02-25T19:04:28.445Z,3.73
2018-02-25T19:06:57.144Z,4.00
2018-02-25T19:09:25.688Z,3.77
2018-02-25T19:11:54.239Z,3.71
2018-02-25T19:14:22.930Z,3.74
2018-02-25T19:16:51.484Z,3.64
2018-02-25T19:19:20.034Z,3.87
2018-02-25T19:21:49.392Z,3.77
2018-02-25T19:24:17.940Z,3.63
2018-02-25T19:26:46.489Z,3.49
2018-02-25T19:29:15.093Z,3.42
2018-02-25T19:31:44.404Z,3.67
2018-02-25T19:34:12.974Z,3.86
2018-02-25T19:36:48.060Z,3.78
2018-02-25T19:39:22.013Z,3.52
2018-02-25T19:41:55.657Z,3.57
2018-02-25T19:44:24.203Z,3.76
2018-02-25T19:46:53.518Z,4.15
2018-02-25T19:49:22.217Z,3.73
2018-02-25T19:51:50.774Z,3.33
2018-02-25T19:54:19.322Z,3.31
2018-02-25T19:56:48.192Z,3.46
2018-02-25T19:59:16.740Z,3.22
2018-02-25T20:01:45.292Z,3.30
2018-02-25T20:04:13.896Z,3.26
2018-02-25T20:06:42.445Z,3.31
2018-02-25T20:09:11.006Z,3.35
2018-02-25T20:11:39.600Z,3.25
2018-02-25T20:14:08.156Z,3.22
2018-02-25T20:19:02.468Z,2.95
2018-02-25T20:21:31.017Z,3.20
2018-02-25T20:23:59.552Z,2.94
2018-02-25T20:26:28.297Z,2.77
2018-02-25T20:28:56.844Z,3.07
2018-02-25T20:31:26.167Z,3.15
2018-02-25T20:33:55.844Z,3.01
2018-02-25T20:36:24.397Z,13.83
2018-02-25T20:38:52.945Z,13.36
2018-02-25T20:41:21.553Z,13.69
2018-02-25T20:43:50.108Z,13.64
2018-02-25T20:46:18.660Z,12.51
2018-02-25T20:48:47.535Z,12.12
2018-02-25T20:51:16.092Z,12.22
2018-02-25T20:53:44.640Z,13.12
2018-02-25T20:56:14.101Z,14.55
2018-02-25T20:58:42.668Z,12.84
2018-02-25T21:01:11.224Z,11.17
2018-02-25T21:03:39.821Z,10.74
2018-02-25T21:06:08.373Z,12.17
2018-02-25T21:08:37.690Z,11.64
2018-02-25T21:11:06.289Z,10.22
2018-02-25T21:13:34.841Z,12.61
2018-02-25T21:16:04.145Z,11.23
2018-02-25T21:18:32.981Z,12.43
2018-02-25T21:21:01.541Z,10.74
2018-02-25T21:23:30.088Z,10.64
2018-02-25T21:25:59.572Z,10.40
2018-02-25T21:28:28.129Z,10.50
2018-02-25T21:30:56.684Z,11.26
2018-02-25T21:33:25.497Z,11.00
2018-02-25T21:35:54.048Z,10.60
2018-02-25T21:38:22.600Z,11.86
2018-02-25T21:40:51.972Z,10.69
2018-02-25T21:43:20.521Z,11.21
2018-02-25T21:45:49.072Z,11.07
2018-02-25T21:48:18.713Z,11.05
2018-02-25T21:50:47.264Z,10.81
2018-02-25T21:53:16.581Z,10.75
2018-02-25T21:55:50.824Z,11.38
2018-02-25T21:58:24.949Z,11.37
2018-02-25T22:00:59.422Z,10.71
2018-02-25T22:03:37.217Z,10.70
2018-02-25T22:06:06.592Z,10.35
2018-02-25T22:08:35.141Z,10.44
2018-02-25T22:11:03.692Z,10.48
2018-02-25T22:13:33.066Z,11.38
2018-02-25T22:16:01.622Z,9.73
2018-02-25T22:18:30.173Z,10.21
2018-02-25T22:20:58.775Z,9.48
2018-02-25T22:23:27.317Z,9.10
2018-02-25T22:25:56.660Z,9.80
2018-02-25T22:28:25.273Z,9.74
2018-02-25T22:30:53.836Z,9.89
2018-02-25T22:33:22.389Z,10.03
2018-02-25T22:35:51.072Z,9.69
2018-02-25T22:38:19.621Z,9.65
2018-02-25T22:40:48.171Z,9.44
2018-02-25T22:43:17.165Z,9.64
2018-02-25T22:45:45.708Z,9.66
2018-02-25T22:48:14.259Z,10.38
2018-02-25T22:50:43.128Z,9.61
2018-02-25T22:53:11.677Z,9.69
2018-02-25T22:55:40.221Z,9.53
2018-02-25T22:58:10.335Z,8.77
2018-02-25T23:00:38.888Z,9.84
2018-02-25T23:03:07.434Z,9.09
2018-02-25T23:05:36.040Z,9.28
2018-02-25T23:08:04.588Z,8.08
2018-02-25T23:10:33.137Z,9.27
2018-02-25T23:13:01.733Z,8.25
2018-02-25T23:15:30.283Z,8.41
2018-02-25T23:17:58.832Z,8.14
2018-02-25T23:20:27.493Z,7.97
2018-02-25T23:22:56.808Z,7.91
2018-02-25T23:25:26.128Z,7.97
2018-02-25T23:27:54.736Z,8.77
2018-02-25T23:30:23.287Z,9.07
2018-02-25T23:32:51.836Z,8.00
2018-02-25T23:35:20.576Z,8.48
2018-02-25T23:37:49.121Z,8.54
2018-02-25T23:40:18.436Z,8.31
2018-02-25T23:42:47.028Z,8.69
2018-02-25T23:45:15.626Z,8.36
2018-02-25T23:47:44.174Z,8.47
2018-02-25T23:50:13.533Z,9.01
2018-02-25T23:52:42.080Z,9.03
2018-02-25T23:55:10.637Z,8.98
2018-02-25T23:57:39.995Z,8.37
